sensor_id;sensor_type;location;lat;lon;timestamp;P1;durP1;ratioP1;P2;durP2;ratioP2
48853;SDS011;34673;52.808;17.856;2023-10-09T00:02:10;6.63;;;2.47;;
48853;SDS011;34673;52.808;17.856;2023-10-09T00:04:38;8.00;;;3.50;;
48853;SDS011;34673;52.808;17.856;2023-10-09T00:07:09;6.38;;;3.00;;
48853;SDS011;34673;52.808;17.856;2023-10-09T00:09:38;7.50;;;3.00;;
48853;SDS011;34673;52.808;17.856;2023-10-09T00:12:15;5.90;;;2.78;;
48853;SDS011;34673;52.808;17.856;2023-10-09T00:14:43;6.43;;;2.92;;
48853;SDS011;34673;52.808;17.856;2023-10-09T00:17:15;8.60;;;2.90;;
48853;SDS011;34673;52.808;17.856;2023-10-09T00:19:49;7.50;;;3.08;;
48853;SDS011;34673;52.808;17.856;2023-10-09T00:22:19;7.25;;;3.17;;
48853;SDS011;34673;52.808;17.856;2023-10-09T00:24:46;5.75;;;2.97;;
48853;SDS011;34673;52.808;17.856;2023-10-09T00:27:17;6.63;;;3.05;;
48853;SDS011;34673;52.808;17.856;2023-10-09T00:29:50;7.28;;;3.10;;
48853;SDS011;34673;52.808;17.856;2023-10-09T00:32:21;6.57;;;2.90;;
48853;SDS011;34673;52.808;17.856;2023-10-09T00:34:53;6.05;;;2.70;;
48853;SDS011;34673;52.808;17.856;2023-10-09T00:37:25;7.43;;;2.70;;
48853;SDS011;34673;52.808;17.856;2023-10-09T00:39:52;7.80;;;3.08;;
48853;SDS011;34673;52.808;17.856;2023-10-09T00:42:24;6.80;;;2.90;;
48853;SDS011;34673;52.808;17.856;2023-10-09T00:44:56;7.45;;;2.72;;
48853;SDS011;34673;52.808;17.856;2023-10-09T00:47:30;5.43;;;2.53;;
48853;SDS011;34673;52.808;17.856;2023-10-09T00:50:02;5.70;;;2.60;;
48853;SDS011;34673;52.808;17.856;2023-10-09T00:52:42;5.95;;;2.33;;
48853;SDS011;34673;52.808;17.856;2023-10-09T00:55:19;6.10;;;2.38;;
48853;SDS011;34673;52.808;17.856;2023-10-09T00:58:06;5.78;;;2.25;;
48853;SDS011;34673;52.808;17.856;2023-10-09T01:00:42;6.30;;;2.40;;
48853;SDS011;34673;52.808;17.856;2023-10-09T01:03:16;4.57;;;2.40;;
48853;SDS011;34673;52.808;17.856;2023-10-09T01:05:53;6.18;;;2.17;;
48853;SDS011;34673;52.808;17.856;2023-10-09T01:08:26;7.38;;;2.55;;
48853;SDS011;34673;52.808;17.856;2023-10-09T01:11:14;4.95;;;2.58;;
48853;SDS011;34673;52.808;17.856;2023-10-09T01:13:56;5.38;;;2.10;;
48853;SDS011;34673;52.808;17.856;2023-10-09T01:16:35;5.57;;;2.10;;
48853;SDS011;34673;52.808;17.856;2023-10-09T01:19:03;6.07;;;2.50;;
48853;SDS011;34673;52.808;17.856;2023-10-09T01:21:40;3.65;;;1.95;;
48853;SDS011;34673;52.808;17.856;2023-10-09T01:24:07;4.07;;;2.10;;
48853;SDS011;34673;52.808;17.856;2023-10-09T01:26:38;6.30;;;2.22;;
48853;SDS011;34673;52.808;17.856;2023-10-09T01:29:12;4.45;;;1.92;;
48853;SDS011;34673;52.808;17.856;2023-10-09T01:34:31;3.97;;;1.70;;
48853;SDS011;34673;52.808;17.856;2023-10-09T01:37:09;6.65;;;2.20;;
48853;SDS011;34673;52.808;17.856;2023-10-09T01:39:53;6.40;;;2.33;;
48853;SDS011;34673;52.808;17.856;2023-10-09T01:42:46;6.00;;;2.08;;
48853;SDS011;34673;52.808;17.856;2023-10-09T01:45:14;9.13;;;2.22;;
48853;SDS011;34673;52.808;17.856;2023-10-09T01:47:47;7.32;;;2.53;;
48853;SDS011;34673;52.808;17.856;2023-10-09T01:50:25;4.53;;;2.08;;
48853;SDS011;34673;52.808;17.856;2023-10-09T01:52:58;5.05;;;2.00;;
48853;SDS011;34673;52.808;17.856;2023-10-09T01:55:30;5.47;;;2.30;;
48853;SDS011;34673;52.808;17.856;2023-10-09T01:58:07;9.88;;;2.33;;
48853;SDS011;34673;52.808;17.856;2023-10-09T02:01:04;5.30;;;1.85;;
48853;SDS011;34673;52.808;17.856;2023-10-09T02:03:33;5.43;;;2.00;;
48853;SDS011;34673;52.808;17.856;2023-10-09T02:06:09;6.50;;;2.35;;
48853;SDS011;34673;52.808;17.856;2023-10-09T02:09:05;4.65;;;2.10;;
48853;SDS011;34673;52.808;17.856;2023-10-09T02:11:33;6.30;;;2.10;;
48853;SDS011;34673;52.808;17.856;2023-10-09T02:14:08;3.40;;;1.85;;
48853;SDS011;34673;52.808;17.856;2023-10-09T02:16:48;4.07;;;2.00;;
48853;SDS011;34673;52.808;17.856;2023-10-09T02:19:34;5.22;;;2.30;;
48853;SDS011;34673;52.808;17.856;2023-10-09T02:22:02;4.47;;;2.13;;
48853;SDS011;34673;52.808;17.856;2023-10-09T02:24:39;4.03;;;2.05;;
48853;SDS011;34673;52.808;17.856;2023-10-09T02:27:17;5.68;;;2.05;;
48853;SDS011;34673;52.808;17.856;2023-10-09T02:30:20;5.25;;;2.50;;
48853;SDS011;34673;52.808;17.856;2023-10-09T02:32:57;5.40;;;2.33;;
48853;SDS011;34673;52.808;17.856;2023-10-09T02:35:36;5.82;;;2.20;;
48853;SDS011;34673;52.808;17.856;2023-10-09T02:38:05;5.70;;;2.25;;
48853;SDS011;34673;52.808;17.856;2023-10-09T02:40:34;5.85;;;2.53;;
48853;SDS011;34673;52.808;17.856;2023-10-09T02:43:08;5.53;;;2.35;;
48853;SDS011;34673;52.808;17.856;2023-10-09T02:45:44;6.70;;;2.72;;
48853;SDS011;34673;52.808;17.856;2023-10-09T02:48:17;5.78;;;2.40;;
48853;SDS011;34673;52.808;17.856;2023-10-09T02:50:46;5.65;;;2.60;;
48853;SDS011;34673;52.808;17.856;2023-10-09T02:53:14;5.22;;;2.33;;
48853;SDS011;34673;52.808;17.856;2023-10-09T02:55:56;6.05;;;2.25;;
48853;SDS011;34673;52.808;17.856;2023-10-09T02:58:41;7.68;;;2.95;;
48853;SDS011;34673;52.808;17.856;2023-10-09T03:01:10;6.28;;;2.75;;
48853;SDS011;34673;52.808;17.856;2023-10-09T03:03:40;5.82;;;2.78;;
48853;SDS011;34673;52.808;17.856;2023-10-09T03:06:14;5.72;;;2.47;;
48853;SDS011;34673;52.808;17.856;2023-10-09T03:08:45;5.65;;;2.22;;
48853;SDS011;34673;52.808;17.856;2023-10-09T03:11:14;4.90;;;2.42;;
48853;SDS011;34673;52.808;17.856;2023-10-09T03:13:44;6.50;;;2.80;;
48853;SDS011;34673;52.808;17.856;2023-10-09T03:16:13;5.95;;;2.83;;
48853;SDS011;34673;52.808;17.856;2023-10-09T03:18:52;7.22;;;2.78;;
48853;SDS011;34673;52.808;17.856;2023-10-09T03:21:19;5.47;;;2.58;;
48853;SDS011;34673;52.808;17.856;2023-10-09T03:23:47;5.47;;;2.72;;
48853;SDS011;34673;52.808;17.856;2023-10-09T03:26:16;5.68;;;2.80;;
48853;SDS011;34673;52.808;17.856;2023-10-09T03:28:48;6.32;;;2.92;;
48853;SDS011;34673;52.808;17.856;2023-10-09T03:31:16;6.40;;;2.80;;
48853;SDS011;34673;52.808;17.856;2023-10-09T03:33:43;5.68;;;2.60;;
48853;SDS011;34673;52.808;17.856;2023-10-09T03:36:10;5.38;;;2.70;;
48853;SDS011;34673;52.808;17.856;2023-10-09T03:38:38;7.53;;;2.90;;
48853;SDS011;34673;52.808;17.856;2023-10-09T03:41:06;5.95;;;2.70;;
48853;SDS011;34673;52.808;17.856;2023-10-09T03:43:34;7.07;;;2.40;;
48853;SDS011;34673;52.808;17.856;2023-10-09T03:46:07;4.82;;;2.40;;
48853;SDS011;34673;52.808;17.856;2023-10-09T03:48:42;6.03;;;2.28;;
48853;SDS011;34673;52.808;17.856;2023-10-09T03:51:12;4.05;;;2.22;;
48853;SDS011;34673;52.808;17.856;2023-10-09T03:53:42;5.10;;;2.60;;
48853;SDS011;34673;52.808;17.856;2023-10-09T03:56:09;5.30;;;2.25;;
48853;SDS011;34673;52.808;17.856;2023-10-09T03:58:40;7.82;;;2.90;;
48853;SDS011;34673;52.808;17.856;2023-10-09T04:01:12;4.95;;;2.42;;
48853;SDS011;34673;52.808;17.856;2023-10-09T04:03:50;4.10;;;2.10;;
48853;SDS011;34673;52.808;17.856;2023-10-09T04:06:27;5.05;;;2.30;;
48853;SDS011;34673;52.808;17.856;2023-10-09T04:11:54;4.60;;;2.05;;
48853;SDS011;34673;52.808;17.856;2023-10-09T04:14:38;4.78;;;2.17;;
48853;SDS011;34673;52.808;17.856;2023-10-09T04:17:32;5.07;;;2.13;;
48853;SDS011;34673;52.808;17.856;2023-10-09T04:20:01;5.38;;;2.00;;
48853;SDS011;34673;52.808;17.856;2023-10-09T04:22:47;4.25;;;2.05;;
48853;SDS011;34673;52.808;17.856;2023-10-09T04:25:18;4.55;;;1.90;;
48853;SDS011;34673;52.808;17.856;2023-10-09T04:28:09;3.80;;;1.77;;
48853;SDS011;34673;52.808;17.856;2023-10-09T04:30:46;5.13;;;2.40;;
48853;SDS011;34673;52.808;17.856;2023-10-09T04:33:21;4.50;;;2.00;;
48853;SDS011;34673;52.808;17.856;2023-10-09T04:36:00;4.70;;;2.28;;
48853;SDS011;34673;52.808;17.856;2023-10-09T04:38:48;4.88;;;2.03;;
48853;SDS011;34673;52.808;17.856;2023-10-09T04:41:43;4.65;;;2.20;;
48853;SDS011;34673;52.808;17.856;2023-10-09T04:44:10;4.90;;;1.75;;
48853;SDS011;34673;52.808;17.856;2023-10-09T04:46:50;4.43;;;1.67;;
48853;SDS011;34673;52.808;17.856;2023-10-09T04:49:41;3.50;;;1.65;;
48853;SDS011;34673;52.808;17.856;2023-10-09T04:52:23;4.93;;;2.13;;
48853;SDS011;34673;52.808;17.856;2023-10-09T04:54:57;3.20;;;1.45;;
48853;SDS011;34673;52.808;17.856;2023-10-09T04:57:40;4.50;;;1.48;;
48853;SDS011;34673;52.808;17.856;2023-10-09T05:00:09;5.93;;;1.90;;
48853;SDS011;34673;52.808;17.856;2023-10-09T05:03:02;4.50;;;1.90;;
48853;SDS011;34673;52.808;17.856;2023-10-09T05:05:33;4.07;;;1.70;;
48853;SDS011;34673;52.808;17.856;2023-10-09T05:08:11;4.65;;;2.10;;
48853;SDS011;34673;52.808;17.856;2023-10-09T05:13:34;5.82;;;2.13;;
48853;SDS011;34673;52.808;17.856;2023-10-09T05:18:55;5.00;;;1.77;;
48853;SDS011;34673;52.808;17.856;2023-10-09T05:23:58;4.80;;;2.35;;
48853;SDS011;34673;52.808;17.856;2023-10-09T05:26:42;5.88;;;2.30;;
48853;SDS011;34673;52.808;17.856;2023-10-09T05:29:18;4.70;;;2.35;;
48853;SDS011;34673;52.808;17.856;2023-10-09T05:31:46;6.25;;;2.60;;
48853;SDS011;34673;52.808;17.856;2023-10-09T05:34:24;7.88;;;2.28;;
48853;SDS011;34673;52.808;17.856;2023-10-09T05:37:02;5.20;;;2.10;;
48853;SDS011;34673;52.808;17.856;2023-10-09T05:39:49;6.30;;;2.40;;
48853;SDS011;34673;52.808;17.856;2023-10-09T05:42:30;5.15;;;2.47;;
48853;SDS011;34673;52.808;17.856;2023-10-09T05:45:05;8.45;;;2.85;;
48853;SDS011;34673;52.808;17.856;2023-10-09T05:50:21;5.93;;;2.63;;
48853;SDS011;34673;52.808;17.856;2023-10-09T05:52:52;5.13;;;2.35;;
48853;SDS011;34673;52.808;17.856;2023-10-09T05:55:21;3.72;;;1.95;;
48853;SDS011;34673;52.808;17.856;2023-10-09T05:58:05;6.32;;;2.80;;
48853;SDS011;34673;52.808;17.856;2023-10-09T06:00:51;5.22;;;2.67;;
48853;SDS011;34673;52.808;17.856;2023-10-09T06:03:37;4.75;;;2.70;;
48853;SDS011;34673;52.808;17.856;2023-10-09T06:06:30;5.47;;;2.80;;
48853;SDS011;34673;52.808;17.856;2023-10-09T06:09:03;5.47;;;2.53;;
48853;SDS011;34673;52.808;17.856;2023-10-09T06:11:42;7.53;;;2.50;;
48853;SDS011;34673;52.808;17.856;2023-10-09T06:14:22;6.43;;;2.80;;
48853;SDS011;34673;52.808;17.856;2023-10-09T06:16:57;6.03;;;2.80;;
48853;SDS011;34673;52.808;17.856;2023-10-09T06:19:30;6.07;;;2.65;;
48853;SDS011;34673;52.808;17.856;2023-10-09T06:21:58;5.22;;;2.63;;
48853;SDS011;34673;52.808;17.856;2023-10-09T06:27:06;7.07;;;3.42;;
48853;SDS011;34673;52.808;17.856;2023-10-09T06:29:41;9.55;;;4.10;;
48853;SDS011;34673;52.808;17.856;2023-10-09T06:32:15;6.28;;;3.70;;
48853;SDS011;34673;52.808;17.856;2023-10-09T06:34:46;7.35;;;4.03;;
48853;SDS011;34673;52.808;17.856;2023-10-09T06:37:46;8.55;;;4.00;;
48853;SDS011;34673;52.808;17.856;2023-10-09T06:40:30;10.45;;;4.00;;
48853;SDS011;34673;52.808;17.856;2023-10-09T06:43:17;9.95;;;4.50;;
48853;SDS011;34673;52.808;17.856;2023-10-09T06:45:54;10.27;;;4.57;;
48853;SDS011;34673;52.808;17.856;2023-10-09T06:48:25;9.27;;;4.75;;
48853;SDS011;34673;52.808;17.856;2023-10-09T06:51:04;10.07;;;4.88;;
48853;SDS011;34673;52.808;17.856;2023-10-09T06:53:54;10.32;;;5.07;;
48853;SDS011;34673;52.808;17.856;2023-10-09T06:56:23;9.32;;;5.00;;
48853;SDS011;34673;52.808;17.856;2023-10-09T06:58:55;9.52;;;5.03;;
48853;SDS011;34673;52.808;17.856;2023-10-09T07:01:27;10.73;;;4.85;;
48853;SDS011;34673;52.808;17.856;2023-10-09T07:06:37;7.97;;;4.60;;
48853;SDS011;34673;52.808;17.856;2023-10-09T07:09:04;9.43;;;4.43;;
48853;SDS011;34673;52.808;17.856;2023-10-09T07:11:39;9.27;;;4.40;;
48853;SDS011;34673;52.808;17.856;2023-10-09T07:14:13;7.63;;;3.90;;
48853;SDS011;34673;52.808;17.856;2023-10-09T07:16:57;8.35;;;4.10;;
48853;SDS011;34673;52.808;17.856;2023-10-09T07:19:25;10.50;;;3.92;;
48853;SDS011;34673;52.808;17.856;2023-10-09T07:22:02;8.68;;;3.80;;
48853;SDS011;34673;52.808;17.856;2023-10-09T07:24:42;6.45;;;4.10;;
48853;SDS011;34673;52.808;17.856;2023-10-09T07:27:10;8.30;;;3.90;;
48853;SDS011;34673;52.808;17.856;2023-10-09T07:29:41;9.10;;;3.78;;
48853;SDS011;34673;52.808;17.856;2023-10-09T07:32:17;10.45;;;5.55;;
48853;SDS011;34673;52.808;17.856;2023-10-09T07:34:51;8.45;;;4.10;;
48853;SDS011;34673;52.808;17.856;2023-10-09T07:37:25;10.45;;;5.55;;
48853;SDS011;34673;52.808;17.856;2023-10-09T07:42:35;11.90;;;5.85;;
48853;SDS011;34673;52.808;17.856;2023-10-09T07:45:02;8.82;;;4.57;;
48853;SDS011;34673;52.808;17.856;2023-10-09T07:47:49;9.45;;;5.00;;
48853;SDS011;34673;52.808;17.856;2023-10-09T07:50:34;8.40;;;4.13;;
48853;SDS011;34673;52.808;17.856;2023-10-09T07:53:08;9.63;;;4.20;;
48853;SDS011;34673;52.808;17.856;2023-10-09T07:55:41;8.18;;;4.35;;
48853;SDS011;34673;52.808;17.856;2023-10-09T07:58:21;7.88;;;4.35;;
48853;SDS011;34673;52.808;17.856;2023-10-09T08:00:52;8.82;;;4.30;;
48853;SDS011;34673;52.808;17.856;2023-10-09T08:03:43;9.38;;;4.25;;
48853;SDS011;34673;52.808;17.856;2023-10-09T08:06:16;7.60;;;4.18;;
48853;SDS011;34673;52.808;17.856;2023-10-09T08:09:03;7.40;;;4.28;;
48853;SDS011;34673;52.808;17.856;2023-10-09T08:11:49;10.27;;;4.78;;
48853;SDS011;34673;52.808;17.856;2023-10-09T08:14:35;9.55;;;4.70;;
48853;SDS011;34673;52.808;17.856;2023-10-09T08:17:02;7.60;;;4.00;;
48853;SDS011;34673;52.808;17.856;2023-10-09T08:19:45;9.55;;;4.78;;
48853;SDS011;34673;52.808;17.856;2023-10-09T08:22:25;8.82;;;4.70;;
48853;SDS011;34673;52.808;17.856;2023-10-09T08:24:57;11.45;;;4.75;;
48853;SDS011;34673;52.808;17.856;2023-10-09T08:27:25;9.57;;;4.68;;
48853;SDS011;34673;52.808;17.856;2023-10-09T08:32:58;12.70;;;5.88;;
48853;SDS011;34673;52.808;17.856;2023-10-09T08:35:54;12.38;;;5.95;;
48853;SDS011;34673;52.808;17.856;2023-10-09T08:38:28;9.90;;;6.03;;
48853;SDS011;34673;52.808;17.856;2023-10-09T08:41:07;10.43;;;4.70;;
48853;SDS011;34673;52.808;17.856;2023-10-09T08:43:47;8.65;;;4.78;;
48853;SDS011;34673;52.808;17.856;2023-10-09T08:46:20;7.80;;;4.50;;
48853;SDS011;34673;52.808;17.856;2023-10-09T08:48:55;7.88;;;4.25;;
48853;SDS011;34673;52.808;17.856;2023-10-09T08:51:24;7.93;;;4.47;;
48853;SDS011;34673;52.808;17.856;2023-10-09T08:53:52;11.77;;;4.50;;
48853;SDS011;34673;52.808;17.856;2023-10-09T08:56:21;8.52;;;4.13;;
48853;SDS011;34673;52.808;17.856;2023-10-09T08:58:52;8.02;;;4.13;;
48853;SDS011;34673;52.808;17.856;2023-10-09T09:01:23;7.75;;;4.15;;
48853;SDS011;34673;52.808;17.856;2023-10-09T09:03:52;8.50;;;4.25;;
48853;SDS011;34673;52.808;17.856;2023-10-09T09:06:22;7.85;;;4.32;;
48853;SDS011;34673;52.808;17.856;2023-10-09T09:08:50;9.80;;;4.47;;
48853;SDS011;34673;52.808;17.856;2023-10-09T09:11:26;27.17;;;6.05;;
48853;SDS011;34673;52.808;17.856;2023-10-09T09:16:32;9.23;;;5.20;;
48853;SDS011;34673;52.808;17.856;2023-10-09T09:19:07;9.48;;;5.88;;
48853;SDS011;34673;52.808;17.856;2023-10-09T09:21:38;8.27;;;3.90;;
48853;SDS011;34673;52.808;17.856;2023-10-09T09:27:00;5.68;;;3.30;;
48853;SDS011;34673;52.808;17.856;2023-10-09T09:29:40;9.70;;;3.50;;
48853;SDS011;34673;52.808;17.856;2023-10-09T09:32:09;6.53;;;3.28;;
48853;SDS011;34673;52.808;17.856;2023-10-09T09:34:50;8.50;;;3.60;;
48853;SDS011;34673;52.808;17.856;2023-10-09T09:37:23;6.88;;;3.30;;
48853;SDS011;34673;52.808;17.856;2023-10-09T09:39:56;8.70;;;3.53;;
48853;SDS011;34673;52.808;17.856;2023-10-09T09:42:27;7.40;;;3.50;;
48853;SDS011;34673;52.808;17.856;2023-10-09T09:44:58;8.52;;;4.05;;
48853;SDS011;34673;52.808;17.856;2023-10-09T09:47:28;7.18;;;3.88;;
48853;SDS011;34673;52.808;17.856;2023-10-09T09:49:56;6.55;;;3.63;;
48853;SDS011;34673;52.808;17.856;2023-10-09T09:52:28;6.03;;;3.45;;
48853;SDS011;34673;52.808;17.856;2023-10-09T09:55:09;5.75;;;3.40;;
48853;SDS011;34673;52.808;17.856;2023-10-09T09:57:49;8.45;;;3.90;;
48853;SDS011;34673;52.808;17.856;2023-10-09T10:02:59;7.43;;;3.60;;
48853;SDS011;34673;52.808;17.856;2023-10-09T10:05:32;7.13;;;3.38;;
48853;SDS011;34673;52.808;17.856;2023-10-09T10:08:01;6.53;;;3.25;;
48853;SDS011;34673;52.808;17.856;2023-10-09T10:10:36;6.50;;;3.10;;
48853;SDS011;34673;52.808;17.856;2023-10-09T10:13:05;6.40;;;3.45;;
48853;SDS011;34673;52.808;17.856;2023-10-09T10:18:24;6.85;;;3.33;;
48853;SDS011;34673;52.808;17.856;2023-10-09T10:23:43;6.93;;;3.35;;
48853;SDS011;34673;52.808;17.856;2023-10-09T10:26:21;4.93;;;3.10;;
48853;SDS011;34673;52.808;17.856;2023-10-09T10:31:53;7.25;;;3.47;;
48853;SDS011;34673;52.808;17.856;2023-10-09T10:34:51;8.00;;;3.53;;
48853;SDS011;34673;52.808;17.856;2023-10-09T10:37:37;7.57;;;3.50;;
48853;SDS011;34673;52.808;17.856;2023-10-09T10:40:31;7.30;;;3.20;;
48853;SDS011;34673;52.808;17.856;2023-10-09T10:43:14;5.95;;;3.00;;
48853;SDS011;34673;52.808;17.856;2023-10-09T10:46:04;5.63;;;2.80;;
48853;SDS011;34673;52.808;17.856;2023-10-09T10:48:35;6.07;;;2.95;;
48853;SDS011;34673;52.808;17.856;2023-10-09T10:51:05;5.85;;;2.40;;
48853;SDS011;34673;52.808;17.856;2023-10-09T10:53:33;5.28;;;2.58;;
48853;SDS011;34673;52.808;17.856;2023-10-09T10:56:14;6.22;;;2.10;;
48853;SDS011;34673;52.808;17.856;2023-10-09T10:58:41;5.07;;;2.50;;
48853;SDS011;34673;52.808;17.856;2023-10-09T11:01:36;6.15;;;2.85;;
48853;SDS011;34673;52.808;17.856;2023-10-09T11:04:40;6.88;;;2.50;;
48853;SDS011;34673;52.808;17.856;2023-10-09T11:07:12;6.22;;;2.80;;
48853;SDS011;34673;52.808;17.856;2023-10-09T11:09:45;5.07;;;2.53;;
48853;SDS011;34673;52.808;17.856;2023-10-09T11:15:12;5.63;;;2.13;;
48853;SDS011;34673;52.808;17.856;2023-10-09T11:18:02;5.97;;;2.50;;
48853;SDS011;34673;52.808;17.856;2023-10-09T11:20:43;5.95;;;2.60;;
48853;SDS011;34673;52.808;17.856;2023-10-09T11:23:32;5.50;;;2.70;;
48853;SDS011;34673;52.808;17.856;2023-10-09T11:26:05;5.35;;;2.60;;
48853;SDS011;34673;52.808;17.856;2023-10-09T11:29:10;5.82;;;2.42;;
48853;SDS011;34673;52.808;17.856;2023-10-09T11:32:05;5.15;;;2.22;;
48853;SDS011;34673;52.808;17.856;2023-10-09T11:34:36;4.40;;;2.03;;
48853;SDS011;34673;52.808;17.856;2023-10-09T11:39:38;6.30;;;2.20;;
48853;SDS011;34673;52.808;17.856;2023-10-09T11:42:26;5.70;;;2.50;;
48853;SDS011;34673;52.808;17.856;2023-10-09T11:47:53;3.53;;;1.42;;
48853;SDS011;34673;52.808;17.856;2023-10-09T11:53:40;2.60;;;1.50;;
48853;SDS011;34673;52.808;17.856;2023-10-09T11:56:21;2.72;;;1.42;;
48853;SDS011;34673;52.808;17.856;2023-10-09T11:58:49;3.35;;;1.42;;
48853;SDS011;34673;52.808;17.856;2023-10-09T12:01:20;3.38;;;1.33;;
48853;SDS011;34673;52.808;17.856;2023-10-09T12:03:51;3.35;;;1.38;;
48853;SDS011;34673;52.808;17.856;2023-10-09T12:06:20;3.15;;;1.25;;
48853;SDS011;34673;52.808;17.856;2023-10-09T12:08:56;3.78;;;1.38;;
48853;SDS011;34673;52.808;17.856;2023-10-09T12:11:25;3.65;;;1.40;;
48853;SDS011;34673;52.808;17.856;2023-10-09T12:13:58;3.50;;;1.30;;
48853;SDS011;34673;52.808;17.856;2023-10-09T12:16:37;2.92;;;1.20;;
48853;SDS011;34673;52.808;17.856;2023-10-09T12:21:36;5.30;;;1.80;;
48853;SDS011;34673;52.808;17.856;2023-10-09T12:24:03;3.47;;;1.40;;
48853;SDS011;34673;52.808;17.856;2023-10-09T12:26:38;4.22;;;1.70;;
48853;SDS011;34673;52.808;17.856;2023-10-09T12:29:07;4.80;;;1.48;;
48853;SDS011;34673;52.808;17.856;2023-10-09T12:31:38;4.35;;;1.17;;
48853;SDS011;34673;52.808;17.856;2023-10-09T12:34:05;2.95;;;1.13;;
48853;SDS011;34673;52.808;17.856;2023-10-09T12:36:32;4.10;;;1.23;;
48853;SDS011;34673;52.808;17.856;2023-10-09T12:39:04;5.03;;;2.00;;
48853;SDS011;34673;52.808;17.856;2023-10-09T12:41:32;4.10;;;1.85;;
48853;SDS011;34673;52.808;17.856;2023-10-09T12:44:02;4.40;;;1.70;;
48853;SDS011;34673;52.808;17.856;2023-10-09T12:46:29;4.05;;;2.10;;
48853;SDS011;34673;52.808;17.856;2023-10-09T12:49:05;3.25;;;1.85;;
48853;SDS011;34673;52.808;17.856;2023-10-09T12:51:32;3.97;;;1.63;;
48853;SDS011;34673;52.808;17.856;2023-10-09T12:54:00;4.28;;;1.50;;
48853;SDS011;34673;52.808;17.856;2023-10-09T12:56:28;3.03;;;0.90;;
48853;SDS011;34673;52.808;17.856;2023-10-09T12:59:05;3.22;;;1.05;;
48853;SDS011;34673;52.808;17.856;2023-10-09T13:01:34;3.00;;;1.17;;
48853;SDS011;34673;52.808;17.856;2023-10-09T13:04:10;3.83;;;1.10;;
48853;SDS011;34673;52.808;17.856;2023-10-09T13:06:44;3.83;;;1.38;;
48853;SDS011;34673;52.808;17.856;2023-10-09T13:09:14;3.17;;;1.50;;
48853;SDS011;34673;52.808;17.856;2023-10-09T13:14:10;3.42;;;1.45;;
48853;SDS011;34673;52.808;17.856;2023-10-09T13:16:44;3.53;;;1.40;;
48853;SDS011;34673;52.808;17.856;2023-10-09T13:19:12;2.95;;;1.35;;
48853;SDS011;34673;52.808;17.856;2023-10-09T13:21:40;3.42;;;1.30;;
48853;SDS011;34673;52.808;17.856;2023-10-09T13:24:07;3.10;;;1.55;;
48853;SDS011;34673;52.808;17.856;2023-10-09T13:26:43;3.35;;;1.40;;
48853;SDS011;34673;52.808;17.856;2023-10-09T13:29:18;2.95;;;1.42;;
48853;SDS011;34673;52.808;17.856;2023-10-09T13:31:52;4.10;;;1.48;;
48853;SDS011;34673;52.808;17.856;2023-10-09T13:34:30;4.10;;;1.60;;
48853;SDS011;34673;52.808;17.856;2023-10-09T13:37:00;3.72;;;1.15;;
48853;SDS011;34673;52.808;17.856;2023-10-09T13:39:38;3.22;;;1.52;;
48853;SDS011;34673;52.808;17.856;2023-10-09T13:42:07;3.13;;;1.40;;
48853;SDS011;34673;52.808;17.856;2023-10-09T13:44:34;4.00;;;1.60;;
48853;SDS011;34673;52.808;17.856;2023-10-09T13:47:03;3.65;;;1.67;;
48853;SDS011;34673;52.808;17.856;2023-10-09T13:49:47;5.10;;;1.80;;
48853;SDS011;34673;52.808;17.856;2023-10-09T13:52:19;5.45;;;1.73;;
48853;SDS011;34673;52.808;17.856;2023-10-09T13:54:48;3.03;;;1.42;;
48853;SDS011;34673;52.808;17.856;2023-10-09T13:57:20;4.82;;;1.70;;
48853;SDS011;34673;52.808;17.856;2023-10-09T13:59:57;3.78;;;1.80;;
48853;SDS011;34673;52.808;17.856;2023-10-09T14:02:26;7.93;;;2.53;;
48853;SDS011;34673;52.808;17.856;2023-10-09T14:04:55;4.90;;;1.67;;
48853;SDS011;34673;52.808;17.856;2023-10-09T14:07:28;4.40;;;1.83;;
48853;SDS011;34673;52.808;17.856;2023-10-09T14:09:55;4.38;;;2.00;;
48853;SDS011;34673;52.808;17.856;2023-10-09T14:12:22;3.42;;;1.60;;
48853;SDS011;34673;52.808;17.856;2023-10-09T14:14:51;5.13;;;1.73;;
48853;SDS011;34673;52.808;17.856;2023-10-09T14:17:21;3.90;;;1.80;;
48853;SDS011;34673;52.808;17.856;2023-10-09T14:19:54;4.18;;;2.03;;
48853;SDS011;34673;52.808;17.856;2023-10-09T14:22:27;6.20;;;1.90;;
48853;SDS011;34673;52.808;17.856;2023-10-09T14:24:56;6.55;;;2.08;;
48853;SDS011;34673;52.808;17.856;2023-10-09T14:27:24;3.58;;;1.95;;
48853;SDS011;34673;52.808;17.856;2023-10-09T14:29:54;3.35;;;1.50;;
48853;SDS011;34673;52.808;17.856;2023-10-09T14:32:27;3.92;;;1.70;;
48853;SDS011;34673;52.808;17.856;2023-10-09T14:35:10;4.78;;;2.03;;
48853;SDS011;34673;52.808;17.856;2023-10-09T14:37:41;6.03;;;2.05;;
48853;SDS011;34673;52.808;17.856;2023-10-09T14:40:08;6.75;;;2.13;;
48853;SDS011;34673;52.808;17.856;2023-10-09T14:42:48;4.67;;;2.20;;
48853;SDS011;34673;52.808;17.856;2023-10-09T14:45:25;3.70;;;1.90;;
48853;SDS011;34673;52.808;17.856;2023-10-09T14:47:53;4.38;;;1.90;;
48853;SDS011;34673;52.808;17.856;2023-10-09T14:50:21;6.30;;;2.30;;
48853;SDS011;34673;52.808;17.856;2023-10-09T14:52:49;5.50;;;1.70;;
48853;SDS011;34673;52.808;17.856;2023-10-09T14:57:56;3.45;;;1.83;;
48853;SDS011;34673;52.808;17.856;2023-10-09T15:00:26;3.13;;;1.50;;
48853;SDS011;34673;52.808;17.856;2023-10-09T15:02:53;5.30;;;1.85;;
48853;SDS011;34673;52.808;17.856;2023-10-09T15:05:20;4.05;;;1.75;;
48853;SDS011;34673;52.808;17.856;2023-10-09T15:07:50;4.35;;;1.50;;
48853;SDS011;34673;52.808;17.856;2023-10-09T15:10:19;3.58;;;1.52;;
48853;SDS011;34673;52.808;17.856;2023-10-09T15:12:47;4.53;;;1.52;;
48853;SDS011;34673;52.808;17.856;2023-10-09T15:15:16;6.10;;;1.80;;
48853;SDS011;34673;52.808;17.856;2023-10-09T15:17:44;4.50;;;1.60;;
48853;SDS011;34673;52.808;17.856;2023-10-09T15:20:15;3.83;;;1.60;;
48853;SDS011;34673;52.808;17.856;2023-10-09T15:22:44;3.35;;;1.63;;
48853;SDS011;34673;52.808;17.856;2023-10-09T15:25:13;4.03;;;1.77;;
48853;SDS011;34673;52.808;17.856;2023-10-09T15:27:42;3.78;;;1.60;;
48853;SDS011;34673;52.808;17.856;2023-10-09T15:30:10;3.83;;;1.70;;
48853;SDS011;34673;52.808;17.856;2023-10-09T15:32:41;5.72;;;1.70;;
48853;SDS011;34673;52.808;17.856;2023-10-09T15:35:09;3.85;;;1.77;;
48853;SDS011;34673;52.808;17.856;2023-10-09T15:37:37;3.70;;;1.70;;
48853;SDS011;34673;52.808;17.856;2023-10-09T15:40:04;2.97;;;1.52;;
48853;SDS011;34673;52.808;17.856;2023-10-09T15:42:32;6.13;;;1.77;;
48853;SDS011;34673;52.808;17.856;2023-10-09T15:47:33;4.18;;;1.80;;
48853;SDS011;34673;52.808;17.856;2023-10-09T15:50:03;4.28;;;2.00;;
48853;SDS011;34673;52.808;17.856;2023-10-09T15:52:31;4.68;;;1.98;;
48853;SDS011;34673;52.808;17.856;2023-10-09T15:54:58;3.80;;;1.88;;
48853;SDS011;34673;52.808;17.856;2023-10-09T15:57:26;5.72;;;1.90;;
48853;SDS011;34673;52.808;17.856;2023-10-09T15:59:54;5.32;;;1.90;;
48853;SDS011;34673;52.808;17.856;2023-10-09T16:02:22;4.18;;;1.90;;
48853;SDS011;34673;52.808;17.856;2023-10-09T16:04:49;5.53;;;1.92;;
48853;SDS011;34673;52.808;17.856;2023-10-09T16:07:17;4.20;;;1.70;;
48853;SDS011;34673;52.808;17.856;2023-10-09T16:09:44;4.57;;;2.22;;
48853;SDS011;34673;52.808;17.856;2023-10-09T16:12:13;5.07;;;2.10;;
48853;SDS011;34673;52.808;17.856;2023-10-09T16:14:41;4.07;;;2.10;;
48853;SDS011;34673;52.808;17.856;2023-10-09T16:17:08;6.75;;;2.65;;
48853;SDS011;34673;52.808;17.856;2023-10-09T16:19:36;6.53;;;2.13;;
48853;SDS011;34673;52.808;17.856;2023-10-09T16:22:04;3.78;;;1.83;;